Time;durP1;ratioP1;P1;durP2;ratioP2;P2;SDS_P1;SDS_P2;PMS_P1;PMS_P2;Temp;Humidity;BMP_temperature;BMP_pressure;BME280_temperature;BME280_humidity;BME280_pressure;Samples;Min_cycle;Max_cycle;Signal;HPM_P1;HPM_P2
2023/06/25 00:00:08;;;;;;;9.30;6.10;;;;;;;21.70;100.00;100946.55;109306;1244;69298;-72
2023/06/25 00:03:08;;;;;;;9.60;6.00;;;;;;;21.70;100.00;100944.59;109235;1244;75131;-71
2023/06/25 00:05:37;;;;;;;9.90;6.40;;;;;;;21.72;100.00;100938.13;109249;1244;63201;-70
2023/06/25 00:08:05;;;;;;;7.40;6.10;;;;;;;21.70;100.00;100936.94;109303;1248;60700;-70
2023/06/25 00:10:34;;;;;;;9.40;6.90;;;;;;;21.66;100.00;100937.00;109139;1248;62848;-71
2023/06/25 00:13:04;;;;;;;7.30;5.30;;;;;;;21.69;100.00;100945.55;109206;1244;71482;-70
2023/06/25 00:15:32;;;;;;;6.50;4.50;;;;;;;21.59;100.00;100942.11;109209;1244;70950;-72
2023/06/25 00:18:01;;;;;;;7.60;4.70;;;;;;;21.58;100.00;100937.77;109178;1247;63814;-72
2023/06/25 00:20:30;;;;;;;7.00;5.20;;;;;;;21.58;100.00;100934.40;109168;1244;57610;-72
2023/06/25 00:22:59;;;;;;;8.70;5.60;;;;;;;21.57;100.00;100932.95;109089;1244;60486;-71
2023/06/25 00:25:35;;;;;;;8.90;5.40;;;;;;;21.55;100.00;100933.33;109174;1247;63435;-72
2023/06/25 00:28:08;;;;;;;7.20;4.60;;;;;;;21.54;100.00;100935.43;109169;1244;72239;-72
2023/06/25 00:30:38;;;;;;;7.90;4.80;;;;;;;21.53;100.00;100940.66;109020;1244;70426;-72
2023/06/25 00:33:08;;;;;;;6.00;4.00;;;;;;;21.54;100.00;100938.85;109072;1245;74972;-72
2023/06/25 00:35:50;;;;;;;8.10;4.60;;;;;;;21.51;100.00;100940.20;109076;1249;63709;-72
2023/06/25 00:38:19;;;;;;;6.40;4.60;;;;;;;21.46;100.00;100936.17;109225;1245;57737;-71
2023/06/25 00:40:50;;;;;;;7.30;4.50;;;;;;;21.41;100.00;100935.15;109213;1247;62199;-71
2023/06/25 00:43:20;;;;;;;7.40;4.30;;;;;;;21.39;100.00;100941.41;109151;1244;61568;-71
2023/06/25 00:45:50;;;;;;;5.60;3.70;;;;;;;21.33;100.00;100944.27;109202;1244;69437;-71
2023/06/25 00:48:21;;;;;;;6.20;3.90;;;;;;;21.32;100.00;100945.38;109181;1244;74362;-72
2023/06/25 00:50:50;;;;;;;7.20;4.10;;;;;;;21.26;100.00;100943.63;109182;1247;57562;-72
2023/06/25 00:53:20;;;;;;;5.80;3.60;;;;;;;21.22;100.00;100945.46;109168;1244;58009;-72
2023/06/25 00:55:50;;;;;;;5.90;4.10;;;;;;;21.21;100.00;100946.67;109040;1245;63298;-72
2023/06/25 00:58:20;;;;;;;6.90;3.80;;;;;;;21.14;100.00;100946.40;109295;1244;70561;-72
2023/06/25 01:00:53;;;;;;;7.30;3.80;;;;;;;21.14;100.00;100951.88;109254;1244;69170;-73
2023/06/25 01:03:37;;;;;;;6.00;4.10;;;;;;;21.11;100.00;100951.50;109233;1248;63197;-73
2023/06/25 01:06:40;;;;;;;6.60;3.80;;;;;;;21.14;100.00;100960.51;109313;1245;57211;-72
2023/06/25 01:09:11;;;;;;;7.60;3.70;;;;;;;21.10;100.00;100965.73;109275;1244;57636;-74
2023/06/25 01:11:40;;;;;;;5.60;4.30;;;;;;;21.13;100.00;100968.82;109105;1244;73545;-73
2023/06/25 01:14:09;;;;;;;5.50;4.00;;;;;;;21.07;100.00;100965.34;109349;1244;72036;-73
2023/06/25 01:16:38;;;;;;;5.20;3.90;;;;;;;21.12;100.00;100966.80;109263;1244;71070;-73
2023/06/25 01:19:06;;;;;;;6.30;4.10;;;;;;;21.11;100.00;100966.00;109184;1244;65026;-72
2023/06/25 01:21:36;;;;;;;7.10;4.10;;;;;;;21.12;100.00;100965.37;109275;1247;57704;-73
2023/06/25 01:24:05;;;;;;;7.40;3.80;;;;;;;21.08;100.00;100961.90;109280;1244;61841;-73
2023/06/25 01:26:34;;;;;;;5.40;3.90;;;;;;;21.01;100.00;100961.44;109351;1244;63444;-73
2023/06/25 01:29:03;;;;;;;5.60;3.60;;;;;;;21.03;100.00;100965.71;109210;1244;71920;-70
2023/06/25 01:31:32;;;;;;;5.70;3.80;;;;;;;21.00;100.00;100967.73;109224;1244;70085;-70
2023/06/25 01:34:01;;;;;;;6.10;3.80;;;;;;;21.00;100.00;100964.76;109157;1245;74510;-70
2023/06/25 01:36:29;;;;;;;6.80;4.40;;;;;;;20.98;100.00;100952.82;109081;1247;62611;-72
2023/06/25 01:38:58;;;;;;;5.60;4.00;;;;;;;20.99;100.00;100953.68;109240;1244;57667;-72
2023/06/25 01:41:27;;;;;;;5.60;4.20;;;;;;;20.98;100.00;100950.63;109330;1244;62198;-72
2023/06/25 01:43:57;;;;;;;9.50;4.40;;;;;;;20.93;100.00;100951.24;109340;1244;72311;-71
2023/06/25 01:46:26;;;;;;;8.20;4.60;;;;;;;20.90;100.00;100945.76;109350;1244;60456;-73
2023/06/25 01:48:55;;;;;;;7.90;4.40;;;;;;;20.78;100.00;100946.83;109167;1244;63304;-75
2023/06/25 01:51:24;;;;;;;7.70;5.20;;;;;;;20.80;100.00;100950.41;109136;1247;62294;-73
2023/06/25 01:53:52;;;;;;;8.20;4.80;;;;;;;20.65;100.00;100952.61;109141;1244;61945;-74
2023/06/25 01:56:21;;;;;;;7.60;5.10;;;;;;;20.74;100.00;100952.46;109149;1244;62974;-74
2023/06/25 01:58:52;;;;;;;11.50;5.50;;;;;;;20.76;100.00;100954.93;109249;1244;61533;-72
2023/06/25 02:01:22;;;;;;;9.50;5.60;;;;;;;20.71;100.00;100959.02;109249;1244;70517;-73
2023/06/25 02:03:51;;;;;;;11.60;5.60;;;;;;;20.66;100.00;100953.77;109291;1244;73827;-73
2023/06/25 02:06:20;;;;;;;9.00;5.60;;;;;;;20.67;100.00;100950.75;109327;1244;62284;-73
2023/06/25 02:08:48;;;;;;;7.90;5.40;;;;;;;20.62;100.00;100948.07;109312;1244;57207;-72
2023/06/25 02:11:17;;;;;;;10.30;5.80;;;;;;;20.62;100.00;100941.09;109417;1244;63959;-73
2023/06/25 02:13:47;;;;;;;8.30;5.70;;;;;;;20.60;100.00;100944.27;109330;1244;72519;-72
2023/06/25 02:16:16;;;;;;;9.50;5.90;;;;;;;20.63;100.00;100946.48;109340;1246;71304;-72
2023/06/25 02:18:45;;;;;;;8.50;6.50;;;;;;;20.57;100.00;100948.64;109294;1244;74267;-72
2023/06/25 02:21:13;;;;;;;9.40;6.60;;;;;;;20.55;100.00;100947.20;109248;1247;63765;-72
2023/06/25 02:23:42;;;;;;;8.50;6.20;;;;;;;20.57;100.00;100943.86;109341;1244;58049;-72
2023/06/25 02:26:11;;;;;;;9.80;6.70;;;;;;;20.61;100.00;100943.54;109399;1244;63027;-72
2023/06/25 02:28:40;;;;;;;10.20;6.60;;;;;;;20.48;100.00;100943.49;109420;1244;72267;-72
2023/06/25 02:31:08;;;;;;;9.10;6.70;;;;;;;20.55;100.00;100943.38;109344;1244;61333;-71
2023/06/25 02:33:37;;;;;;;8.90;7.60;;;;;;;20.59;100.00;100941.98;109432;1244;64048;-72
2023/06/25 02:36:06;;;;;;;9.50;7.10;;;;;;;20.54;100.00;100945.15;109401;1244;57129;-71
2023/06/25 02:38:35;;;;;;;10.30;7.30;;;;;;;20.57;100.00;100949.58;109393;1244;57405;-72
2023/06/25 02:41:04;;;;;;;9.80;7.20;;;;;;;20.59;100.00;100953.65;109309;1244;73602;-71
2023/06/25 02:43:32;;;;;;;8.70;6.90;;;;;;;20.56;100.00;100949.29;109355;1244;72456;-71
2023/06/25 02:46:01;;;;;;;10.00;7.50;;;;;;;20.58;100.00;100941.11;109293;1244;60488;-71
2023/06/25 02:48:30;;;;;;;10.80;7.90;;;;;;;20.57;100.00;100936.77;109284;1244;63259;-72
2023/06/25 02:50:59;;;;;;;10.20;7.60;;;;;;;20.51;100.00;100936.92;109379;1244;57267;-72
2023/06/25 02:53:28;;;;;;;14.40;7.70;;;;;;;20.53;100.00;100938.34;109312;1244;60403;-72
2023/06/25 02:55:56;;;;;;;9.40;7.60;;;;;;;20.56;100.00;100936.57;109193;1244;74722;-74
2023/06/25 02:58:25;;;;;;;10.80;7.40;;;;;;;20.60;100.00;100934.34;109351;1244;61481;-74
2023/06/25 03:00:54;;;;;;;13.00;7.60;;;;;;;20.57;100.00;100935.38;109408;1244;59259;-71
2023/06/25 03:03:23;;;;;;;10.10;8.00;;;;;;;20.60;100.00;100931.92;109299;1244;63415;-71
2023/06/25 03:05:53;;;;;;;9.30;7.10;;;;;;;20.63;100.00;100927.99;109268;1247;57012;-71
2023/06/25 03:08:22;;;;;;;10.50;7.90;;;;;;;20.64;100.00;100927.70;109116;1244;60983;-71
2023/06/25 03:10:51;;;;;;;9.80;8.20;;;;;;;20.63;100.00;100929.63;109069;1246;72452;-72
2023/06/25 03:13:20;;;;;;;11.70;8.40;;;;;;;20.65;100.00;100932.93;109294;1244;62148;-72
2023/06/25 03:15:49;;;;;;;9.80;8.00;;;;;;;20.67;100.00;100934.31;109263;1244;70327;-72
2023/06/25 03:18:18;;;;;;;12.30;8.50;;;;;;;20.66;100.00;100928.21;109247;1244;63655;-71
2023/06/25 03:20:47;;;;;;;11.10;8.40;;;;;;;20.65;100.00;100924.64;109231;1247;61974;-73
2023/06/25 03:23:16;;;;;;;11.20;8.70;;;;;;;20.65;100.00;100931.88;109274;1243;61625;-70
2023/06/25 03:25:46;;;;;;;14.40;8.70;;;;;;;20.58;100.00;100931.10;109347;1244;64026;-70
2023/06/25 03:28:19;;;;;;;10.30;7.70;;;;;;;20.61;100.00;100931.27;109484;1244;61617;-70
2023/06/25 03:30:48;;;;;;;13.00;9.20;;;;;;;20.61;100.00;100939.70;109402;1243;70093;-74
2023/06/25 03:33:18;;;;;;;16.30;9.40;;;;;;;20.62;100.00;100937.78;109359;1244;74702;-73
2023/06/25 03:35:48;;;;;;;12.40;9.20;;;;;;;20.56;100.00;100938.73;109320;1246;57422;-72
2023/06/25 03:38:17;;;;;;;11.40;8.90;;;;;;;20.58;100.00;100939.02;109312;1244;57527;-72
2023/06/25 03:40:46;;;;;;;11.40;8.40;;;;;;;20.60;100.00;100932.95;109309;1245;63009;-74
2023/06/25 03:43:15;;;;;;;12.00;8.50;;;;;;;20.61;100.00;100928.07;109311;1244;71464;-71
2023/06/25 03:45:43;;;;;;;11.20;8.50;;;;;;;20.65;100.00;100929.35;109268;1244;70817;-72
2023/06/25 03:48:13;;;;;;;11.30;8.80;;;;;;;20.61;100.00;100932.11;109355;1245;63843;-72
2023/06/25 03:50:50;;;;;;;11.20;8.50;;;;;;;20.63;100.00;100928.55;109287;1247;57391;-73
2023/06/25 03:53:20;;;;;;;13.20;9.00;;;;;;;20.62;100.00;100933.41;109240;1244;58015;-73
2023/06/25 03:55:49;;;;;;;14.60;8.70;;;;;;;20.64;100.00;100935.50;109274;1244;63673;-73
2023/06/25 03:58:18;;;;;;;12.00;9.00;;;;;;;20.73;100.00;100938.05;109327;1246;61718;-72
2023/06/25 04:00:48;;;;;;;12.30;8.80;;;;;;;20.74;100.00;100933.50;109350;1244;59995;-74
2023/06/25 04:03:17;;;;;;;12.50;8.70;;;;;;;20.74;100.00;100926.75;109352;1244;63295;-73
2023/06/25 04:05:49;;;;;;;12.60;9.30;;;;;;;20.73;100.00;100923.91;109346;1245;57240;-74
2023/06/25 04:08:18;;;;;;;11.40;8.60;;;;;;;20.82;100.00;100924.45;109407;1244;58017;-73
2023/06/25 04:10:47;;;;;;;13.60;9.20;;;;;;;20.91;100.00;100919.98;109350;1244;62267;-75
2023/06/25 04:13:17;;;;;;;12.10;8.70;;;;;;;21.06;100.00;100919.16;109430;1244;72615;-71
2023/06/25 04:15:45;;;;;;;11.50;8.40;;;;;;;21.16;100.00;100927.04;109413;1244;70927;-71
2023/06/25 04:18:15;;;;;;;10.90;8.80;;;;;;;21.17;100.00;100929.31;109311;1247;63283;-71
2023/06/25 04:20:44;;;;;;;10.80;8.40;;;;;;;21.28;100.00;100925.63;109335;1244;62186;-73
2023/06/25 04:23:12;;;;;;;12.70;8.90;;;;;;;21.40;100.00;100924.83;109360;1244;62464;-72
2023/06/25 04:25:43;;;;;;;11.50;8.00;;;;;;;21.41;100.00;100917.79;109415;1243;63555;-69
2023/06/25 04:28:18;;;;;;;12.30;8.10;;;;;;;21.43;100.00;100913.52;109350;1245;61680;-70
2023/06/25 04:30:48;;;;;;;11.80;8.00;;;;;;;21.53;100.00;100906.70;109282;1244;60094;-70
2023/06/25 04:33:19;;;;;;;11.60;8.10;;;;;;;21.65;100.00;100905.48;109302;1244;73098;-71
2023/06/25 04:35:48;;;;;;;11.70;8.10;;;;;;;21.66;100.00;100907.63;109246;1244;57693;-71
2023/06/25 04:38:17;;;;;;;11.20;8.00;;;;;;;21.58;100.00;100908.19;109322;1244;60468;-71
2023/06/25 04:40:46;;;;;;;13.00;7.90;;;;;;;21.61;100.00;100913.66;109215;1244;74150;-71
2023/06/25 04:43:14;;;;;;;14.10;8.10;;;;;;;21.61;100.00;100912.29;109304;1244;73400;-72
2023/06/25 04:45:44;;;;;;;12.20;8.20;;;;;;;21.58;100.00;100904.30;109272;1244;61119;-72
2023/06/25 04:48:13;;;;;;;12.60;8.50;;;;;;;21.53;100.00;100907.03;109347;1244;73575;-72
2023/06/25 04:50:41;;;;;;;12.10;7.70;;;;;;;21.54;100.00;100912.04;109197;1247;62548;-72
2023/06/25 04:53:11;;;;;;;13.50;8.40;;;;;;;21.53;100.00;100913.58;109330;1244;61605;-73
2023/06/25 04:55:39;;;;;;;10.90;7.50;;;;;;;21.57;100.00;100916.11;109297;1244;73962;-71
2023/06/25 04:58:08;;;;;;;11.90;8.20;;;;;;;21.52;100.00;100920.14;109343;1243;61613;-71
2023/06/25 05:00:37;;;;;;;11.10;8.70;;;;;;;21.53;100.00;100917.13;109219;1244;59282;-71
2023/06/25 05:03:06;;;;;;;11.00;8.30;;;;;;;21.42;100.00;100918.86;109212;1244;74329;-70
2023/06/25 05:05:35;;;;;;;10.30;8.40;;;;;;;21.39;100.00;100918.95;109209;1244;63622;-70
2023/06/25 05:08:04;;;;;;;14.00;8.70;;;;;;;21.27;100.00;100916.05;109229;1243;61667;-71
2023/06/25 05:10:33;;;;;;;13.10;9.00;;;;;;;21.09;100.00;100918.05;109178;1244;62983;-70
2023/06/25 05:13:03;;;;;;;13.60;9.10;;;;;;;21.16;100.00;100916.67;109191;1244;73386;-70
2023/06/25 05:15:32;;;;;;;13.20;9.80;;;;;;;21.19;100.00;100910.79;109205;1244;59675;-69
2023/06/25 05:18:01;;;;;;;11.80;9.00;;;;;;;21.12;100.00;100904.65;109200;1244;62535;-69
2023/06/25 05:20:35;;;;;;;12.40;8.90;;;;;;;21.09;100.00;100902.88;109199;1245;57153;-70
2023/06/25 05:23:06;;;;;;;12.70;9.50;;;;;;;20.90;100.00;100905.12;109267;1244;61218;-69
2023/06/25 05:25:35;;;;;;;12.00;9.70;;;;;;;20.91;100.00;100904.52;109324;1243;73352;-69
2023/06/25 05:28:05;;;;;;;11.90;9.20;;;;;;;20.90;100.00;100903.97;109332;1243;72729;-69
2023/06/25 05:30:34;;;;;;;12.30;9.60;;;;;;;20.87;100.00;100903.21;109366;1243;60340;-69
2023/06/25 05:33:03;;;;;;;14.20;9.40;;;;;;;20.82;100.00;100902.77;109376;1244;63613;-70
2023/06/25 05:35:32;;;;;;;13.70;10.00;;;;;;;20.78;100.00;100905.08;109298;1245;57239;-70
2023/06/25 05:38:01;;;;;;;11.80;9.50;;;;;;;20.65;100.00;100907.86;109377;1244;57542;-70
2023/06/25 05:40:30;;;;;;;12.10;9.60;;;;;;;20.49;100.00;100908.90;109407;1245;63330;-70
2023/06/25 05:42:59;;;;;;;12.80;9.90;;;;;;;20.42;100.00;100914.80;109424;1244;60945;-71
2023/06/25 05:45:28;;;;;;;14.00;10.10;;;;;;;20.41;100.00;100914.01;109372;1244;70569;-73
2023/06/25 05:47:56;;;;;;;15.30;9.70;;;;;;;20.44;100.00;100908.75;109343;1245;73706;-69
2023/06/25 05:50:25;;;;;;;16.20;10.00;;;;;;;20.53;100.00;100914.33;109351;1244;63477;-68
2023/06/25 05:52:54;;;;;;;15.50;10.00;;;;;;;20.60;100.00;100918.24;109415;1245;57171;-70
2023/06/25 05:55:23;;;;;;;12.10;9.70;;;;;;;20.77;100.00;100914.47;109387;1245;63023;-71
2023/06/25 05:57:52;;;;;;;11.50;9.60;;;;;;;20.92;100.00;100908.66;109412;1244;72176;-72
2023/06/25 06:00:22;;;;;;;17.00;9.60;;;;;;;21.08;100.00;100908.29;109431;1244;70815;-73
2023/06/25 06:02:51;;;;;;;11.90;8.80;;;;;;;21.26;100.00;100910.29;109307;1245;74712;-63
2023/06/25 06:05:20;;;;;;;11.70;8.70;;;;;;;21.29;100.00;100912.96;109392;1244;62677;-64
2023/06/25 06:07:48;;;;;;;13.10;9.30;;;;;;;21.49;100.00;100914.70;109433;1243;61277;-62
2023/06/25 06:10:18;;;;;;;13.20;9.60;;;;;;;21.74;100.00;100913.20;109393;1244;73973;-62
2023/06/25 06:12:46;;;;;;;14.00;9.80;;;;;;;21.79;100.00;100917.99;109419;1244;72737;-62
2023/06/25 06:15:16;;;;;;;11.50;9.10;;;;;;;22.04;100.00;100920.79;109402;1244;60414;-63
2023/06/25 06:17:44;;;;;;;10.20;7.90;;;;;;;22.23;100.00;100921.48;109352;1244;73159;-63
2023/06/25 06:20:13;;;;;;;15.40;9.30;;;;;;;22.29;100.00;100923.65;109299;1247;63614;-63
2023/06/25 06:22:42;;;;;;;11.90;9.40;;;;;;;22.32;100.00;100928.23;109391;1244;57890;-64
2023/06/25 06:25:11;;;;;;;12.20;9.10;;;;;;;22.38;100.00;100922.67;109353;1245;63709;-64
2023/06/25 06:27:40;;;;;;;12.70;9.60;;;;;;;22.37;100.00;100915.04;109337;1244;72239;-67
2023/06/25 06:30:09;;;;;;;12.30;9.70;;;;;;;22.51;100.00;100910.23;109371;1244;70913;-65
2023/06/25 06:32:38;;;;;;;11.70;9.90;;;;;;;22.50;100.00;100908.72;109325;1247;63384;-66
2023/06/25 06:35:07;;;;;;;13.70;9.80;;;;;;;22.48;100.00;100909.09;109318;1245;57520;-67
2023/06/25 06:37:36;;;;;;;12.60;10.00;;;;;;;22.47;100.00;100909.38;109378;1244;57825;-66
2023/06/25 06:40:07;;;;;;;15.00;10.30;;;;;;;22.47;100.00;100913.80;109305;1247;63025;-65
2023/06/25 06:42:36;;;;;;;13.00;9.60;;;;;;;22.50;100.00;100915.11;109377;1244;60917;-66
2023/06/25 06:45:05;;;;;;;14.60;9.60;;;;;;;22.31;100.00;100913.07;109281;1244;69291;-65
2023/06/25 06:47:34;;;;;;;12.60;10.30;;;;;;;22.50;100.00;100908.72;109277;1247;63757;-64
2023/06/25 06:50:03;;;;;;;13.20;10.20;;;;;;;22.56;100.00;100909.61;109290;1245;57707;-64
2023/06/25 06:52:32;;;;;;;14.50;10.50;;;;;;;22.55;100.00;100912.52;109308;1244;57690;-66
2023/06/25 06:55:01;;;;;;;13.10;10.20;;;;;;;22.54;100.00;100907.38;109352;1244;73881;-64
2023/06/25 06:57:30;;;;;;;13.10;9.30;;;;;;;22.46;100.00;100908.82;109241;1243;72282;-64
2023/06/25 06:59:58;;;;;;;12.10;9.50;;;;;;;22.63;100.00;100904.66;109322;1244;70173;-78
2023/06/25 07:02:27;;;;;;;14.60;10.10;;;;;;;22.67;100.00;100909.14;109358;1244;74736;-84
2023/06/25 07:04:56;;;;;;;11.70;9.60;;;;;;;22.70;100.00;100905.95;109378;1246;62759;-72
2023/06/25 07:07:25;;;;;;;13.70;9.90;;;;;;;22.76;100.00;100905.56;109398;1244;57726;-85
2023/06/25 07:09:54;;;;;;;12.40;9.80;;;;;;;22.83;100.00;100907.34;109335;1244;73644;-80
2023/06/25 07:12:23;;;;;;;15.80;10.90;;;;;;;22.85;100.00;100903.23;109424;1244;61587;-87
2023/06/25 07:14:52;;;;;;;13.50;9.80;;;;;;;23.02;100.00;100902.23;109472;1244;60062;-81
2023/06/25 07:17:21;;;;;;;13.90;10.00;;;;;;;23.08;100.00;100902.74;109202;1244;348883;-75
2023/06/25 07:19:50;;;;;;;14.00;11.10;;;;;;;23.12;100.00;100899.84;109519;1244;63592;-77
2023/06/25 07:22:18;;;;;;;14.10;11.00;;;;;;;23.20;100.00;100898.20;109384;1243;60772;-90
2023/06/25 07:24:47;;;;;;;12.00;9.80;;;;;;;23.25;100.00;100902.44;109522;1244;62958;-76
2023/06/25 07:27:16;;;;;;;12.20;9.80;;;;;;;23.32;100.00;100900.17;109486;1243;61687;-69
2023/06/25 07:29:45;;;;;;;13.60;10.30;;;;;;;23.43;100.00;100894.98;109476;1243;69774;-68
2023/06/25 07:32:13;;;;;;;12.00;9.90;;;;;;;23.50;100.00;100895.38;109434;1245;74573;-67
2023/06/25 07:34:42;;;;;;;13.00;9.30;;;;;;;23.54;100.00;100901.20;109395;1243;57352;-68
2023/06/25 07:37:11;;;;;;;12.50;10.20;;;;;;;23.59;100.00;100896.13;109497;1243;57726;-67
2023/06/25 07:39:40;;;;;;;13.80;10.80;;;;;;;23.39;100.00;100897.53;109507;1243;72795;-66
2023/06/25 07:42:08;;;;;;;13.00;10.10;;;;;;;23.43;100.00;100899.27;109556;1243;72730;-66
2023/06/25 07:44:37;;;;;;;15.10;10.00;;;;;;;23.65;100.00;100895.20;109537;1242;60975;-68
2023/06/25 07:47:26;;;;;;;13.30;9.20;;;;;;;23.80;100.00;100891.04;109500;1242;62504;-69
2023/06/25 07:49:55;;;;;;;15.20;10.40;;;;;;;23.76;100.00;100888.09;109407;1243;62066;-68
2023/06/25 07:52:23;;;;;;;11.70;9.80;;;;;;;23.89;100.00;100889.20;109377;1243;59771;-68
2023/06/25 07:54:53;;;;;;;9.30;8.00;;;;;;;23.96;100.00;100885.05;109297;1243;62717;-69
2023/06/25 07:57:22;;;;;;;11.20;9.50;;;;;;;23.96;100.00;100888.13;109186;1242;60929;-69
2023/06/25 07:59:53;;;;;;;14.60;11.20;;;;;;;23.89;100.00;100890.17;109408;1243;60042;-69
2023/06/25 08:02:22;;;;;;;14.00;10.70;;;;;;;23.98;100.00;100892.20;109299;1242;64386;-66
2023/06/25 08:04:51;;;;;;;13.30;10.10;;;;;;;24.04;100.00;100888.88;109400;1244;57698;-65
2023/06/25 08:07:20;;;;;;;12.40;10.70;;;;;;;23.99;100.00;100892.09;109428;1244;60603;-65
2023/06/25 08:09:49;;;;;;;11.30;10.00;;;;;;;24.02;100.00;100892.15;109388;1243;74275;-65
2023/06/25 08:12:26;;;;;;;12.60;10.00;;;;;;;23.83;100.00;100886.14;109399;1243;72590;-67
2023/06/25 08:14:54;;;;;;;13.60;10.40;;;;;;;24.09;100.00;100881.27;109556;1242;71080;-69
2023/06/25 08:17:23;;;;;;;13.30;10.60;;;;;;;23.91;99.99;100879.77;109531;1243;72907;-69
2023/06/25 08:19:52;;;;;;;11.60;10.10;;;;;;;24.03;99.72;100873.89;109525;1242;57271;-68
2023/06/25 08:22:21;;;;;;;14.50;11.30;;;;;;;24.00;99.86;100868.86;109574;1242;57674;-68
2023/06/25 08:24:50;;;;;;;11.80;10.30;;;;;;;24.11;99.90;100866.56;109480;1245;73496;-64
2023/06/25 08:27:19;;;;;;;13.80;10.20;;;;;;;24.16;99.59;100861.17;109605;1243;62300;-65
2023/06/25 08:29:48;;;;;;;13.50;10.90;;;;;;;24.20;99.49;100859.77;109600;1244;70500;-64
2023/06/25 08:32:16;;;;;;;12.60;11.00;;;;;;;24.18;99.76;100860.06;109606;1242;73544;-65
2023/06/25 08:34:45;;;;;;;18.30;11.20;;;;;;;24.21;99.54;100845.14;109593;1244;57706;-68
2023/06/25 08:37:14;;;;;;;14.40;10.80;;;;;;;24.25;99.78;100844.00;109484;1243;57289;-72
2023/06/25 08:39:46;;;;;;;13.20;11.10;;;;;;;24.49;98.88;100836.11;109603;1243;72088;-70
2023/06/25 08:42:15;;;;;;;11.90;10.60;;;;;;;24.59;97.48;100829.79;109497;1244;71172;-72
2023/06/25 08:44:44;;;;;;;12.40;9.90;;;;;;;24.80;95.16;100831.38;109544;1243;70100;-72
2023/06/25 08:47:18;;;;;;;13.60;10.10;;;;;;;24.67;95.40;100828.33;109538;1243;74160;-71
2023/06/25 08:49:50;;;;;;;18.00;11.00;;;;;;;24.69;95.07;100827.92;109330;1243;57819;-71
2023/06/25 08:52:20;;;;;;;12.00;10.60;;;;;;;24.70;94.96;100824.15;109392;1242;61251;-69
2023/06/25 08:54:50;;;;;;;13.00;10.40;;;;;;;24.89;94.69;100828.06;109322;1243;64073;-70
2023/06/25 08:57:19;;;;;;;12.40;10.30;;;;;;;25.00;93.36;100827.82;109445;1243;70481;-70
2023/06/25 08:59:48;;;;;;;13.50;10.50;;;;;;;25.15;92.04;100829.09;109479;1242;70396;-70
2023/06/25 09:02:17;;;;;;;14.30;9.90;;;;;;;25.01;91.30;100825.77;109540;1243;65670;-70
2023/06/25 09:04:47;;;;;;;12.80;9.70;;;;;;;25.04;91.01;100821.05;109354;1242;57184;-70
2023/06/25 09:07:16;;;;;;;15.10;11.00;;;;;;;25.01;91.31;100821.64;109377;1245;57667;-71
2023/06/25 09:09:53;;;;;;;10.10;8.20;;;;;;;24.86;91.84;100822.89;109588;1241;62343;-72
2023/06/25 09:12:25;;;;;;;12.40;9.10;;;;;;;24.58;91.97;100821.23;109571;1242;60918;-70
2023/06/25 09:14:56;;;;;;;13.70;9.60;;;;;;;24.31;93.46;100824.54;109447;1241;60068;-71
2023/06/25 09:17:25;;;;;;;15.50;10.60;;;;;;;24.39;93.50;100823.20;109529;1244;62784;-72
2023/06/25 09:19:54;;;;;;;14.60;10.10;;;;;;;24.32;95.64;100822.21;109553;1244;57523;-71
2023/06/25 09:22:23;;;;;;;14.50;10.00;;;;;;;24.58;94.52;100814.25;109624;1241;59751;-71
2023/06/25 09:24:51;;;;;;;9.90;8.60;;;;;;;24.76;93.88;100817.92;109598;1241;73468;-71
2023/06/25 09:27:20;;;;;;;13.00;9.30;;;;;;;24.88;93.04;100817.30;109588;1241;63271;-71
2023/06/25 09:29:49;;;;;;;14.40;9.90;;;;;;;24.95;92.70;100815.63;109465;1241;60035;-71
2023/06/25 09:32:18;;;;;;;11.60;9.20;;;;;;;25.03;92.22;100815.36;109427;1242;63322;-72
2023/06/25 09:34:47;;;;;;;13.20;8.60;;;;;;;25.00;92.28;100818.41;109489;1242;57186;-72
2023/06/25 09:37:16;;;;;;;12.00;8.60;;;;;;;25.07;91.34;100812.50;109468;1243;57675;-72
2023/06/25 09:39:44;;;;;;;12.90;9.80;;;;;;;25.01;91.92;100805.98;109603;1242;73960;-72
2023/06/25 09:42:14;;;;;;;9.50;8.20;;;;;;;25.22;90.32;100806.48;109582;1241;60877;-73
2023/06/25 09:44:45;;;;;;;9.80;8.40;;;;;;;25.19;90.35;100808.74;109456;1241;59249;-72
2023/06/25 09:47:17;;;;;;;12.40;8.50;;;;;;;25.27;88.90;100807.35;109501;1242;73882;-72
2023/06/25 09:49:49;;;;;;;12.20;8.40;;;;;;;25.33;88.30;100793.83;109364;1242;57504;-73
2023/06/25 09:52:22;;;;;;;10.60;8.70;;;;;;;25.22;88.07;100791.36;109419;1243;57673;-72
2023/06/25 09:54:52;;;;;;;10.00;8.10;;;;;;;25.32;87.51;100791.19;109542;1243;62214;-73
2023/06/25 09:57:24;;;;;;;10.90;8.50;;;;;;;25.38;88.03;100787.41;109520;1242;63344;-70
2023/06/25 09:59:53;;;;;;;11.00;8.60;;;;;;;25.29;89.00;100782.52;109537;1243;61822;-71
2023/06/25 10:02:22;;;;;;;9.50;8.10;;;;;;;25.47;88.98;100779.55;109503;1243;74366;-72
2023/06/25 10:04:51;;;;;;;9.70;8.10;;;;;;;25.63;87.36;100775.05;109473;1243;61150;-72
2023/06/25 10:07:21;;;;;;;12.30;8.40;;;;;;;25.75;85.77;100771.75;109588;1242;57700;-72
2023/06/25 10:09:53;;;;;;;9.10;8.00;;;;;;;25.60;85.20;100764.89;109568;1241;64813;-71
2023/06/25 10:12:22;;;;;;;8.90;7.50;;;;;;;25.57;84.07;100762.91;109515;1241;73013;-71
2023/06/25 10:14:53;;;;;;;8.80;7.60;;;;;;;25.46;84.44;100764.29;109612;1241;60379;-73
2023/06/25 10:17:22;;;;;;;9.20;7.80;;;;;;;25.42;85.38;100758.97;109460;1243;64250;-72
2023/06/25 10:19:59;;;;;;;8.60;7.30;;;;;;;25.52;85.03;100758.27;109561;1243;57754;-73
2023/06/25 10:22:33;;;;;;;8.50;7.10;;;;;;;25.47;84.65;100759.77;109436;1243;57262;-72
2023/06/25 10:25:02;;;;;;;10.40;7.40;;;;;;;25.47;84.68;100756.14;109378;1243;64009;-66
2023/06/25 10:27:31;;;;;;;8.80;7.50;;;;;;;25.37;84.84;100758.45;109558;1241;72567;-65
2023/06/25 10:30:11;;;;;;;7.50;6.70;;;;;;;25.18;86.20;100755.77;109581;1241;70126;-65
2023/06/25 10:32:42;;;;;;;9.20;7.20;;;;;;;25.46;85.43;100749.80;109579;1241;64883;-65
2023/06/25 10:35:18;;;;;;;8.60;7.20;;;;;;;25.63;84.94;100748.09;109549;1244;61615;-65
2023/06/25 10:37:47;;;;;;;10.00;6.60;;;;;;;25.70;84.35;100748.54;109597;1241;61667;-65
2023/06/25 10:40:15;;;;;;;9.70;7.60;;;;;;;25.58;85.18;100755.67;109686;1241;73249;-64
2023/06/25 10:42:46;;;;;;;9.00;7.50;;;;;;;25.62;84.61;100763.40;109689;1241;72580;-65
2023/06/25 10:45:15;;;;;;;13.20;7.10;;;;;;;25.51;84.28;100762.34;109691;1243;59728;-64
2023/06/25 10:47:44;;;;;;;9.40;8.00;;;;;;;25.38;85.20;100768.06;109666;1243;72432;-64
2023/06/25 10:50:22;;;;;;;9.40;7.00;;;;;;;25.45;85.34;100767.17;109644;1241;60913;-64
2023/06/25 10:52:51;;;;;;;9.30;6.80;;;;;;;25.49;85.09;100770.84;109591;1242;57754;-65
2023/06/25 10:55:20;;;;;;;11.90;7.50;;;;;;;25.49;85.67;100772.80;109512;1242;73142;-64
2023/06/25 10:57:49;;;;;;;8.10;6.80;;;;;;;25.63;84.28;100770.18;109547;1242;72562;-65
2023/06/25 11:00:22;;;;;;;10.10;6.30;;;;;;;25.54;83.68;100773.86;109424;1243;70930;-62
2023/06/25 11:02:52;;;;;;;7.80;6.30;;;;;;;25.63;82.13;100770.23;109601;1242;74173;-63
2023/06/25 11:05:33;;;;;;;10.80;6.80;;;;;;;25.63;82.47;100771.05;109500;1245;57629;-63
2023/06/25 11:08:09;;;;;;;8.70;6.80;;;;;;;25.63;83.51;100771.92;109599;1244;57220;-63
2023/06/25 11:10:39;;;;;;;8.20;6.70;;;;;;;25.76;83.69;100764.59;109452;1246;63608;-63
2023/06/25 11:13:12;;;;;;;8.60;6.70;;;;;;;25.85;83.41;100758.77;109377;1247;62383;-65
2023/06/25 11:15:41;;;;;;;9.60;7.50;;;;;;;25.95;83.53;100755.38;109518;1241;59237;-63